Time;durP1;ratioP1;P1;durP2;ratioP2;P2;SDS_P1;SDS_P2;PMS_P1;PMS_P2;Temp;Humidity;BMP_temperature;BMP_pressure;BME280_temperature;BME280_humidity;BME280_pressure;Samples;Min_cycle;Max_cycle;Signal;HPM_P1;HPM_P2
2022/01/25 00:27:02;;;;;;;79.15;34.83;;;4.20;99.90;;;;;;5054066;28;20174;-78
2022/01/25 00:30:24;;;;;;;71.80;33.22;;;4.30;99.90;;;;;;5053819;28;20258;-85
2022/01/25 00:32:16;;;;;;;69.47;33.88;;;4.30;99.90;;;;;;5052718;28;20195;-86
2022/01/25 00:34:43;;;;;;;75.03;32.92;;;4.20;99.90;;;;;;5053512;28;20171;-80
2022/01/25 00:37:09;;;;;;;71.55;33.50;;;4.00;99.90;;;;;;5053281;28;20203;-87
2022/01/25 00:39:37;;;;;;;75.72;32.38;;;3.80;99.90;;;;;;5053513;28;20166;-82
2022/01/25 00:42:05;;;;;;;70.70;32.45;;;3.70;99.90;;;;;;5052408;28;20191;-87
2022/01/25 00:44:35;;;;;;;69.35;32.70;;;3.70;99.90;;;;;;5053422;28;20221;-87
2022/01/25 00:47:01;;;;;;;72.30;32.28;;;3.80;99.90;;;;;;5054252;28;20159;-86
2022/01/25 00:49:29;;;;;;;72.95;32.63;;;3.70;99.90;;;;;;5053411;28;20619;-81
2022/01/25 00:56:49;;;;;;;63.95;31.92;;;3.60;99.90;;;;;;5053243;28;20215;-86
2022/01/25 00:59:20;;;;;;;66.22;32.08;;;3.60;99.90;;;;;;5053804;28;20201;-88
2022/01/25 01:01:48;;;;;;;73.38;33.47;;;3.70;99.90;;;;;;5053239;28;20183;-88
2022/01/25 01:04:15;;;;;;;73.13;34.92;;;3.80;99.90;;;;;;5053144;28;20226;-84
2022/01/25 01:06:43;;;;;;;73.50;32.15;;;3.90;99.90;;;;;;5053569;28;20160;-87
2022/01/25 01:09:10;;;;;;;69.15;32.03;;;4.10;99.90;;;;;;5053304;28;20258;-87
2022/01/25 01:11:56;;;;;;;79.45;34.95;;;4.10;99.90;;;;;;5052910;28;20594;-87
2022/01/25 01:38:13;;;;;;;71.05;31.55;;;3.70;99.90;;;;;;5058378;28;20606;-85
2022/01/25 01:48:39;;;;;;;77.57;34.80;;;3.40;99.90;;;;;;5055597;28;20267;-88
2022/01/25 01:51:14;;;;;;;78.00;34.78;;;3.60;99.90;;;;;;5071896;28;20659;-88
2022/01/25 01:53:40;;;;;;;70.60;33.78;;;3.50;99.90;;;;;;5055253;28;20210;-84
2022/01/25 01:56:06;;;;;;;76.57;34.40;;;3.50;99.90;;;;;;5055142;28;20230;-87
2022/01/25 01:58:35;;;;;;;70.93;34.15;;;3.40;99.90;;;;;;5056346;28;20195;-78
2022/01/25 02:01:02;;;;;;;68.07;32.47;;;3.50;99.90;;;;;;5056298;28;20175;-79
2022/01/25 02:03:27;;;;;;;67.75;33.08;;;3.60;99.90;;;;;;5056207;28;20202;-83
2022/01/25 02:05:53;;;;;;;76.93;33.97;;;3.50;99.90;;;;;;5055672;28;20583;-87
2022/01/25 02:08:26;;;;;;;72.80;32.63;;;3.40;99.90;;;;;;5058084;28;20171;-85
2022/01/25 02:10:53;;;;;;;71.03;33.53;;;3.00;99.90;;;;;;5058035;28;20205;-85
2022/01/25 02:13:19;;;;;;;79.03;34.78;;;3.00;99.90;;;;;;5055766;28;20636;-82
2022/01/25 02:15:47;;;;;;;71.88;33.08;;;2.90;99.90;;;;;;5055850;28;20199;-88
2022/01/25 02:23:45;;;;;;;74.60;34.80;;;2.80;99.90;;;;;;5056086;28;20175;-85
2022/01/25 02:26:12;;;;;;;71.72;33.05;;;2.90;99.90;;;;;;5056490;28;20168;-79
2022/01/25 02:28:40;;;;;;;78.50;35.28;;;2.80;99.90;;;;;;5055896;28;20173;-78
2022/01/25 02:31:08;;;;;;;76.10;34.25;;;2.70;99.90;;;;;;5056598;28;20682;-78
2022/01/25 02:33:35;;;;;;;69.95;33.40;;;2.70;99.90;;;;;;5056336;28;20289;-87
2022/01/25 02:36:08;;;;;;;80.15;34.10;;;2.70;99.90;;;;;;5055029;28;20191;-78
2022/01/25 02:38:34;;;;;;;76.07;34.38;;;2.70;99.90;;;;;;5056406;28;20187;-87
2022/01/25 02:41:02;;;;;;;72.63;33.25;;;2.80;99.90;;;;;;5057291;28;20186;-88
2022/01/25 02:43:28;;;;;;;75.00;35.50;;;2.70;99.90;;;;;;5055566;28;20182;-87
2022/01/25 02:49:09;;;;;;;73.65;33.42;;;2.40;99.90;;;;;;5055834;28;20170;-88
2022/01/25 02:51:44;;;;;;;76.32;33.25;;;2.30;99.90;;;;;;5066554;28;20245;-87
2022/01/25 02:54:11;;;;;;;84.18;34.30;;;2.30;99.90;;;;;;5057077;28;20170;-87
2022/01/25 02:56:38;;;;;;;76.38;32.58;;;2.30;99.90;;;;;;5055696;28;20202;-87
2022/01/25 02:59:05;;;;;;;84.30;35.45;;;2.40;99.90;;;;;;5054227;28;20634;-78
2022/01/25 03:01:31;;;;;;;76.82;34.92;;;2.20;99.90;;;;;;5055422;28;20222;-86
2022/01/25 03:03:57;;;;;;;77.20;35.53;;;2.20;99.90;;;;;;5055401;28;20668;-86
2022/01/25 03:06:24;;;;;;;83.47;34.97;;;2.20;99.90;;;;;;5062425;28;20187;-85
2022/01/25 03:08:51;;;;;;;75.05;33.67;;;2.20;99.90;;;;;;5070894;28;20202;-85
2022/01/25 03:11:18;;;;;;;78.07;33.85;;;2.20;99.90;;;;;;5071892;28;20179;-88
2022/01/25 03:13:55;;;;;;;77.35;35.25;;;2.20;99.90;;;;;;5072213;28;20197;-87
2022/01/25 03:18:57;;;;;;;75.38;34.90;;;2.10;99.90;;;;;;5056088;28;20169;-88
2022/01/25 03:23:53;;;;;;;79.28;38.05;;;2.10;99.90;;;;;;5054637;28;20175;-79
2022/01/25 03:26:19;;;;;;;77.72;35.35;;;2.00;99.90;;;;;;5069857;28;20237;-87
2022/01/25 03:28:46;;;;;;;72.63;34.00;;;2.00;99.90;;;;;;5054486;28;20159;-87
2022/01/25 03:31:14;;;;;;;77.50;34.53;;;2.30;99.90;;;;;;5054368;28;20647;-84
2022/01/25 03:33:40;;;;;;;80.00;34.47;;;2.40;99.90;;;;;;5069798;28;20171;-82
2022/01/25 03:36:07;;;;;;;74.88;33.75;;;2.60;99.90;;;;;;5052867;28;20211;-86
2022/01/25 03:38:35;;;;;;;79.70;33.72;;;2.50;99.90;;;;;;5054521;28;20163;-87
2022/01/25 03:41:03;;;;;;;81.88;33.88;;;2.50;99.90;;;;;;5053550;28;20559;-83
2022/01/25 03:43:28;;;;;;;71.60;32.80;;;2.60;99.90;;;;;;5054132;28;20163;-86
2022/01/25 03:46:06;;;;;;;69.68;33.38;;;2.80;99.90;;;;;;5054413;28;20167;-86
2022/01/25 03:50:57;;;;;;;73.00;32.35;;;2.50;99.90;;;;;;5054377;28;20195;-88
2022/01/25 03:53:23;;;;;;;72.75;34.05;;;2.50;99.90;;;;;;5054040;28;20246;-88
2022/01/25 03:55:49;;;;;;;77.70;33.97;;;2.50;99.90;;;;;;5053855;28;20209;-88
2022/01/25 03:58:15;;;;;;;70.63;32.28;;;2.70;99.90;;;;;;5053810;28;20199;-83
2022/01/25 04:00:42;;;;;;;69.05;31.48;;;2.80;99.90;;;;;;5052920;28;20178;-88
2022/01/25 04:03:15;;;;;;;69.28;32.10;;;2.70;99.90;;;;;;5054573;28;20160;-87
2022/01/25 04:08:07;;;;;;;79.18;32.92;;;2.50;99.90;;;;;;5054211;28;20174;-87
2022/01/25 04:10:33;;;;;;;66.18;30.00;;;2.50;99.90;;;;;;5053972;28;20512;-86
2022/01/25 04:12:59;;;;;;;74.60;33.50;;;2.40;99.90;;;;;;5053635;28;20620;-87
2022/01/25 04:15:25;;;;;;;65.22;33.05;;;2.50;99.90;;;;;;5054665;28;20195;-81
2022/01/25 04:18:00;;;;;;;84.35;34.55;;;2.50;99.90;;;;;;5055955;28;20171;-84
2022/01/25 04:20:31;;;;;;;75.70;33.35;;;2.60;99.90;;;;;;5054070;28;20194;-87
2022/01/25 04:25:42;;;;;;;69.70;32.15;;;2.60;99.90;;;;;;5053608;28;20597;-79
2022/01/25 04:28:07;;;;;;;73.88;30.33;;;2.70;99.90;;;;;;5053558;28;20164;-86
2022/01/25 04:30:33;;;;;;;70.07;31.50;;;2.50;99.90;;;;;;5052649;28;20185;-78
2022/01/25 04:33:05;;;;;;;66.68;29.42;;;2.70;99.90;;;;;;5069045;28;20258;-87
2022/01/25 05:02:13;;;;;;;64.88;30.17;;;2.60;99.90;;;;;;5057406;28;20278;-87
2022/01/25 05:04:45;;;;;;;60.88;28.60;;;2.60;99.90;;;;;;5073697;28;20171;-87
2022/01/25 05:07:25;;;;;;;63.00;28.63;;;2.60;99.90;;;;;;5057632;28;20193;-88
2022/01/25 05:09:52;;;;;;;63.28;27.42;;;2.50;99.90;;;;;;5057560;28;20246;-88
2022/01/25 05:12:18;;;;;;;68.82;28.42;;;2.50;99.90;;;;;;5057395;28;20191;-87
2022/01/25 05:15:06;;;;;;;61.10;27.23;;;2.50;99.90;;;;;;5055844;28;20231;-88
2022/01/25 05:17:39;;;;;;;67.32;27.65;;;2.50;99.90;;;;;;5056987;28;20175;-87
2022/01/25 05:22:51;;;;;;;62.15;27.70;;;2.50;99.90;;;;;;5056782;28;20217;-86
2022/01/25 05:25:17;;;;;;;68.45;26.95;;;2.80;99.90;;;;;;5056992;28;20163;-88
2022/01/25 05:27:42;;;;;;;55.05;25.70;;;2.50;99.90;;;;;;5056905;28;20171;-88
2022/01/25 05:30:09;;;;;;;67.82;27.65;;;2.50;99.90;;;;;;5056384;28;20217;-80
2022/01/25 05:32:35;;;;;;;67.63;27.00;;;2.50;99.90;;;;;;5056584;28;20237;-87
2022/01/25 05:35:01;;;;;;;70.30;29.58;;;2.50;99.90;;;;;;5055556;28;20175;-79
2022/01/25 05:37:27;;;;;;;78.00;27.95;;;2.70;99.90;;;;;;5055992;28;20207;-86
2022/01/25 05:39:53;;;;;;;61.40;26.25;;;2.80;99.90;;;;;;5055966;28;20174;-85
2022/01/25 05:42:48;;;;;;;68.53;24.30;;;2.80;99.90;;;;;;5056171;28;20183;-80
2022/01/25 05:45:20;;;;;;;70.60;26.50;;;2.60;99.90;;;;;;5055472;28;20577;-82
2022/01/25 05:47:47;;;;;;;60.40;25.63;;;2.50;99.90;;;;;;5056589;28;20170;-86
2022/01/25 05:50:13;;;;;;;81.63;26.20;;;2.60;99.90;;;;;;5056272;28;20163;-85
2022/01/25 05:52:40;;;;;;;64.10;27.13;;;2.70;99.90;;;;;;5056094;28;20194;-79
2022/01/25 05:55:07;;;;;;;67.60;24.92;;;2.70;99.90;;;;;;5056003;28;20620;-87
2022/01/25 05:57:33;;;;;;;66.13;26.42;;;2.60;99.90;;;;;;5055823;28;20179;-79
2022/01/25 06:00:00;;;;;;;72.57;24.63;;;2.60;99.90;;;;;;5056535;28;20504;-87
2022/01/25 06:02:29;;;;;;;68.70;25.15;;;2.70;99.90;;;;;;5056156;28;20670;-82
2022/01/25 06:04:54;;;;;;;56.47;24.48;;;2.60;99.90;;;;;;5055827;28;20155;-86
2022/01/25 06:07:20;;;;;;;67.13;22.88;;;2.70;99.90;;;;;;5055683;28;20178;-87
2022/01/25 06:09:48;;;;;;;62.78;23.05;;;2.60;99.90;;;;;;5056088;28;20616;-87
2022/01/25 06:12:14;;;;;;;55.58;21.65;;;2.70;99.90;;;;;;5055953;28;20589;-81
2022/01/25 06:14:40;;;;;;;66.93;23.23;;;2.60;99.90;;;;;;5055779;28;20167;-83
2022/01/25 06:17:06;;;;;;;92.20;27.55;;;2.70;99.90;;;;;;5055361;28;20294;-78
2022/01/25 06:19:33;;;;;;;103.15;29.63;;;2.60;99.90;;;;;;5055665;28;20254;-82
2022/01/25 06:21:58;;;;;;;179.57;34.67;;;2.80;99.90;;;;;;5055688;28;20202;-79
2022/01/25 06:24:24;;;;;;;155.48;30.27;;;2.70;99.90;;;;;;5071283;28;20180;-81
2022/01/25 06:26:50;;;;;;;129.27;32.47;;;2.70;99.90;;;;;;5055907;28;20233;-82
2022/01/25 06:29:18;;;;;;;79.20;23.98;;;2.70;99.90;;;;;;5055782;28;20201;-83
2022/01/25 06:31:46;;;;;;;239.85;47.33;;;2.60;99.90;;;;;;5054170;28;20187;-87
2022/01/25 06:34:12;;;;;;;119.85;31.77;;;2.60;99.90;;;;;;5055261;28;20217;-85
2022/01/25 06:36:37;;;;;;;119.43;38.33;;;2.70;99.90;;;;;;5055199;28;20743;-82
2022/01/25 06:39:03;;;;;;;83.45;33.00;;;2.70;99.90;;;;;;5055446;28;20167;-87
2022/01/25 06:41:29;;;;;;;132.30;29.20;;;2.80;99.90;;;;;;5055712;28;20252;-78
2022/01/25 06:43:54;;;;;;;74.50;25.55;;;2.80;99.90;;;;;;5054830;28;20523;-87
2022/01/25 06:46:20;;;;;;;85.50;31.50;;;2.80;99.90;;;;;;5055502;28;20171;-86
2022/01/25 06:48:46;;;;;;;88.63;32.60;;;2.70;99.90;;;;;;5055590;28;20163;-78
2022/01/25 06:51:11;;;;;;;119.88;42.75;;;2.70;99.90;;;;;;5054932;28;20260;-86
2022/01/25 06:53:37;;;;;;;81.65;26.85;;;2.60;99.90;;;;;;5055341;28;20174;-86
2022/01/25 06:56:04;;;;;;;126.90;31.38;;;2.60;99.90;;;;;;5055126;28;20213;-79
2022/01/25 06:58:30;;;;;;;88.10;27.10;;;2.60;99.90;;;;;;5053184;28;20646;-78
2022/01/25 07:00:56;;;;;;;67.90;25.33;;;2.60;99.90;;;;;;5054763;28;20191;-88
2022/01/25 07:03:21;;;;;;;80.38;25.20;;;2.80;99.90;;;;;;5055104;28;20228;-87
2022/01/25 07:05:47;;;;;;;76.70;24.50;;;2.80;99.90;;;;;;5055570;28;20304;-86
2022/01/25 07:08:13;;;;;;;94.53;26.30;;;2.70;99.90;;;;;;5054861;28;20175;-87
2022/01/25 07:10:38;;;;;;;97.07;26.00;;;2.90;99.90;;;;;;5054688;28;20175;-78
2022/01/25 07:13:04;;;;;;;80.32;22.70;;;2.90;99.90;;;;;;5054943;28;20168;-87
2022/01/25 07:15:30;;;;;;;115.47;27.73;;;3.00;99.90;;;;;;5054448;28;20190;-83
2022/01/25 07:17:56;;;;;;;75.53;23.60;;;3.00;99.90;;;;;;5070374;28;20174;-87
2022/01/25 07:20:21;;;;;;;73.35;25.08;;;3.10;99.90;;;;;;5054893;28;20254;-85
2022/01/25 07:22:47;;;;;;;86.82;26.23;;;2.80;99.90;;;;;;5069479;28;20233;-85
2022/01/25 07:25:13;;;;;;;77.53;25.27;;;2.90;99.90;;;;;;5054762;28;20171;-89
2022/01/25 07:27:39;;;;;;;88.35;27.30;;;3.10;99.90;;;;;;5059103;28;20178;-79
2022/01/25 07:30:06;;;;;;;78.50;25.88;;;3.30;99.90;;;;;;5068172;28;20636;-79
2022/01/25 07:32:32;;;;;;;99.13;35.45;;;3.20;99.90;;;;;;5065572;28;20190;-85
2022/01/25 07:34:58;;;;;;;125.30;33.35;;;3.20;99.90;;;;;;5064233;28;20186;-87
2022/01/25 07:37:23;;;;;;;102.95;25.77;;;3.10;99.90;;;;;;5055164;28;20218;-79
2022/01/25 07:39:49;;;;;;;260.80;50.75;;;3.10;99.90;;;;;;5053455;28;20521;-82
2022/01/25 07:42:17;;;;;;;84.28;27.27;;;3.10;99.90;;;;;;5052696;28;20691;-88
2022/01/25 07:44:44;;;;;;;105.20;39.38;;;3.40;99.90;;;;;;5053532;28;20207;-79
2022/01/25 07:47:10;;;;;;;94.50;33.15;;;3.70;99.90;;;;;;5053138;28;20611;-84
2022/01/25 07:49:36;;;;;;;313.08;72.43;;;3.60;99.90;;;;;;5053014;28;20678;-79
2022/01/25 07:52:03;;;;;;;146.98;37.05;;;3.70;99.90;;;;;;5052585;28;20191;-86
2022/01/25 07:54:28;;;;;;;101.57;26.92;;;3.70;99.90;;;;;;5052890;28;20202;-79
2022/01/25 07:56:54;;;;;;;191.75;37.00;;;3.60;99.90;;;;;;5052682;28;20231;-82
2022/01/25 07:59:20;;;;;;;94.10;27.52;;;3.40;99.90;;;;;;5053039;28;20171;-82
2022/01/25 08:01:46;;;;;;;77.55;25.77;;;3.50;99.90;;;;;;5053108;28;20187;-82
2022/01/25 08:04:14;;;;;;;161.80;39.38;;;3.20;99.90;;;;;;5053553;28;20155;-83
2022/01/25 08:06:40;;;;;;;69.68;23.45;;;3.20;99.90;;;;;;5052309;28;20197;-85
2022/01/25 08:09:08;;;;;;;85.38;25.50;;;3.50;99.90;;;;;;5052980;28;20171;-78
2022/01/25 08:11:34;;;;;;;75.43;24.73;;;3.60;99.90;;;;;;5052978;28;20190;-86
2022/01/25 08:14:21;;;;;;;72.07;24.17;;;3.50;99.90;;;;;;5053119;28;20273;-80
2022/01/25 08:16:48;;;;;;;79.38;24.75;;;3.30;99.90;;;;;;5052931;28;20215;-89
2022/01/25 08:19:15;;;;;;;77.53;25.35;;;3.40;99.90;;;;;;5052979;28;20163;-88
2022/01/25 08:21:41;;;;;;;90.78;25.02;;;3.40;99.90;;;;;;5052399;28;20257;-83
2022/01/25 08:24:09;;;;;;;74.68;24.88;;;3.40;99.90;;;;;;5052255;28;20213;-83
2022/01/25 08:26:35;;;;;;;63.85;22.27;;;3.40;99.90;;;;;;5052291;28;20689;-86
2022/01/25 08:29:01;;;;;;;76.88;24.77;;;3.20;99.90;;;;;;5052488;28;20230;-84
2022/01/25 08:31:27;;;;;;;75.05;26.27;;;3.10;99.90;;;;;;5052243;28;20186;-82
2022/01/25 08:33:53;;;;;;;73.97;25.48;;;3.20;99.90;;;;;;5052925;28;20624;-79
2022/01/25 08:36:19;;;;;;;101.07;28.08;;;3.50;99.90;;;;;;5055675;28;20629;-79
2022/01/25 08:38:46;;;;;;;105.05;26.40;;;3.60;99.90;;;;;;5056088;28;20159;-88
2022/01/25 08:41:12;;;;;;;91.88;26.50;;;3.70;99.90;;;;;;5055535;28;20274;-85
2022/01/25 08:43:38;;;;;;;114.30;25.92;;;3.60;99.90;;;;;;5055763;28;20164;-81
2022/01/25 08:46:04;;;;;;;68.80;24.48;;;3.60;99.90;;;;;;5055219;28;20179;-86
2022/01/25 08:48:29;;;;;;;91.28;27.27;;;3.80;99.90;;;;;;5055897;28;20174;-78
2022/01/25 08:50:55;;;;;;;96.22;27.02;;;3.70;99.90;;;;;;5055604;28;20187;-83
2022/01/25 08:53:21;;;;;;;71.15;24.05;;;3.90;99.90;;;;;;5055429;28;20212;-87
2022/01/25 08:55:47;;;;;;;93.50;28.02;;;4.00;99.90;;;;;;5055268;28;20248;-87
2022/01/25 08:58:13;;;;;;;105.80;33.38;;;4.20;99.90;;;;;;5055287;28;20620;-85
2022/01/25 09:00:39;;;;;;;93.35;28.52;;;4.30;99.90;;;;;;5053580;28;20258;-85
2022/01/25 09:03:04;;;;;;;93.95;35.85;;;4.40;99.90;;;;;;5054814;28;20541;-85
2022/01/25 09:05:31;;;;;;;84.00;31.05;;;4.60;99.90;;;;;;5053859;28;20175;-79
2022/01/25 09:07:58;;;;;;;71.18;26.50;;;4.40;99.90;;;;;;5053082;28;20265;-87
2022/01/25 09:10:25;;;;;;;120.97;27.70;;;4.30;99.90;;;;;;5055066;28;20622;-81
2022/01/25 09:12:50;;;;;;;107.22;31.85;;;4.30;99.90;;;;;;5055894;28;20190;-94
2022/01/25 09:15:16;;;;;;;67.95;24.42;;;4.30;99.90;;;;;;5057259;28;20216;-79
2022/01/25 09:17:42;;;;;;;64.32;24.25;;;4.50;99.90;;;;;;5055575;28;20634;-88
2022/01/25 09:20:08;;;;;;;88.40;26.35;;;4.40;99.90;;;;;;5054997;28;20246;-86
2022/01/25 09:23:32;;;;;;;76.07;25.25;;;4.20;99.90;;;;;;5090605;27;21107;-81
2022/01/25 09:25:58;;;;;;;101.50;31.00;;;4.30;99.90;;;;;;5090521;28;20162;-79
2022/01/25 09:28:23;;;;;;;68.10;23.00;;;4.20;99.90;;;;;;5091543;28;20185;-86
2022/01/25 09:30:49;;;;;;;149.88;32.22;;;4.20;99.90;;;;;;5090820;28;20630;-87
2022/01/25 09:33:15;;;;;;;66.28;23.23;;;3.80;99.90;;;;;;5090797;28;20170;-85
2022/01/25 09:35:41;;;;;;;64.50;24.35;;;3.90;99.90;;;;;;5090933;28;20162;-77
2022/01/25 09:38:07;;;;;;;76.07;24.25;;;3.80;99.90;;;;;;5090875;28;20170;-79
2022/01/25 09:40:33;;;;;;;68.43;23.77;;;3.80;99.90;;;;;;5089869;28;20246;-88
2022/01/25 09:42:59;;;;;;;92.57;29.08;;;4.00;99.90;;;;;;5089687;28;20201;-87
2022/01/25 09:45:26;;;;;;;105.47;27.02;;;4.20;99.90;;;;;;5091228;28;20235;-79
2022/01/25 09:47:52;;;;;;;89.25;28.10;;;4.40;99.90;;;;;;5090018;28;20266;-83
2022/01/25 09:50:19;;;;;;;60.67;21.88;;;4.60;99.90;;;;;;5090832;28;20630;-81
2022/01/25 09:52:45;;;;;;;88.40;24.55;;;4.50;99.90;;;;;;5090513;28;20194;-87
2022/01/25 09:55:21;;;;;;;115.78;29.83;;;4.40;99.90;;;;;;5090383;28;20177;-83
2022/01/25 09:57:47;;;;;;;143.20;32.75;;;4.40;99.90;;;;;;5089045;28;20184;-87
2022/01/25 10:00:15;;;;;;;86.75;30.55;;;4.70;99.90;;;;;;5090688;28;20162;-77
2022/01/25 10:02:55;;;;;;;76.18;26.90;;;4.80;99.90;;;;;;5088563;28;20205;-77
2022/01/25 10:05:35;;;;;;;87.25;32.45;;;4.50;99.90;;;;;;5090514;28;20165;-87
2022/01/25 10:08:13;;;;;;;78.25;33.85;;;4.40;99.90;;;;;;5090341;28;20166;-83
2022/01/25 10:10:47;;;;;;;105.40;44.03;;;4.40;99.90;;;;;;5089720;28;20252;-78
2022/01/25 10:13:25;;;;;;;65.68;27.98;;;4.40;99.90;;;;;;5090273;28;20626;-79
2022/01/25 10:16:07;;;;;;;75.78;27.77;;;4.70;99.90;;;;;;5090107;28;20514;-88
2022/01/25 10:18:42;;;;;;;64.80;23.52;;;4.70;99.90;;;;;;5089567;28;20162;-87
2022/01/25 10:21:28;;;;;;;54.53;23.55;;;4.80;99.90;;;;;;5089512;28;20269;-79
2022/01/25 10:24:12;;;;;;;67.20;23.83;;;4.80;99.90;;;;;;5089154;28;20162;-87
2022/01/25 10:26:42;;;;;;;64.13;24.13;;;4.60;99.90;;;;;;5088927;28;20180;-82
2022/01/25 10:29:10;;;;;;;72.03;25.35;;;4.60;99.90;;;;;;5089361;28;20516;-86
2022/01/25 10:31:42;;;;;;;70.03;25.38;;;4.80;99.90;;;;;;5091445;28;20189;-82
2022/01/25 10:34:10;;;;;;;79.55;25.38;;;4.80;99.90;;;;;;5078089;28;20175;-86
2022/01/25 10:36:48;;;;;;;59.10;21.60;;;4.80;99.90;;;;;;5075830;28;20303;-83
2022/01/25 10:39:29;;;;;;;60.80;22.58;;;4.80;99.90;;;;;;5075268;28;20239;-83
2022/01/25 10:42:15;;;;;;;62.75;25.00;;;4.70;99.90;;;;;;5074995;28;20213;-83
2022/01/25 10:45:16;;;;;;;69.75;27.60;;;4.70;99.90;;;;;;5073924;28;20579;-83
2022/01/25 10:47:42;;;;;;;77.75;26.60;;;4.80;99.90;;;;;;5076285;28;20239;-81
2022/01/25 10:50:13;;;;;;;60.28;23.65;;;5.00;99.90;;;;;;5075425;28;20175;-88
2022/01/25 10:52:38;;;;;;;69.75;24.75;;;4.90;99.90;;;;;;5076688;28;20194;-78
2022/01/25 10:55:05;;;;;;;65.65;22.83;;;4.80;99.90;;;;;;5074994;28;20163;-77
2022/01/25 10:57:31;;;;;;;64.68;23.38;;;4.60;99.90;;;;;;5075383;28;20624;-79
2022/01/25 11:00:00;;;;;;;76.22;24.70;;;4.60;99.90;;;;;;5074760;28;20173;-87
2022/01/25 11:02:27;;;;;;;54.90;22.65;;;4.60;99.90;;;;;;5073468;28;20234;-91
2022/01/25 11:05:05;;;;;;;62.50;24.90;;;4.70;99.90;;;;;;5076753;28;20169;-91
2022/01/25 11:07:39;;;;;;;61.88;24.20;;;4.70;99.90;;;;;;5075680;28;20245;-93
2022/01/25 11:10:05;;;;;;;63.85;24.30;;;5.00;99.90;;;;;;5075322;28;20166;-80
2022/01/25 11:12:36;;;;;;;56.92;24.17;;;5.20;99.90;;;;;;5075982;28;20205;-79
2022/01/25 11:15:05;;;;;;;59.25;22.77;;;5.10;99.90;;;;;;5076645;28;20257;-87
2022/01/25 11:17:32;;;;;;;57.75;23.15;;;4.80;99.90;;;;;;5075765;28;20174;-91
2022/01/25 11:19:59;;;;;;;67.35;25.80;;;4.60;99.90;;;;;;5077087;28;20170;-93
2022/01/25 11:22:26;;;;;;;69.55;26.05;;;4.80;99.90;;;;;;5075675;28;20304;-90
2022/01/25 11:24:56;;;;;;;68.15;26.88;;;4.90;99.90;;;;;;5076921;28;20162;-86
2022/01/25 11:27:23;;;;;;;69.47;24.30;;;5.10;99.90;;;;;;5076006;28;20272;-90
2022/01/25 11:29:52;;;;;;;76.60;23.85;;;4.90;99.90;;;;;;5075614;28;20170;-89
2022/01/25 11:32:25;;;;;;;72.93;24.85;;;4.90;99.90;;;;;;5075935;28;20190;-80
2022/01/25 11:34:52;;;;;;;74.35;24.40;;;5.00;99.90;;;;;;5076244;28;20498;-88
2022/01/25 11:37:18;;;;;;;72.55;24.63;;;5.10;99.90;;;;;;5081147;28;20177;-86
2022/01/25 11:39:49;;;;;;;72.40;24.17;;;5.10;99.90;;;;;;5087637;28;20147;-85
2022/01/25 11:42:25;;;;;;;87.03;26.42;;;5.10;99.90;;;;;;5085398;28;20210;-79
2022/01/25 11:44:52;;;;;;;58.33;23.45;;;5.20;99.90;;;;;;5083075;28;20174;-81
2022/01/25 11:47:21;;;;;;;76.07;28.48;;;4.90;99.90;;;;;;5080629;28;20181;-89
2022/01/25 11:50:00;;;;;;;78.88;26.17;;;4.80;99.90;;;;;;5089841;28;20166;-78
2022/01/25 11:52:30;;;;;;;79.90;28.58;;;5.10;99.90;;;;;;5088207;28;20184;-82
2022/01/25 11:55:20;;;;;;;111.88;40.78;;;5.00;99.90;;;;;;5091148;28;20619;-87
2022/01/25 11:58:13;;;;;;;207.32;85.38;;;5.20;99.90;;;;;;5080365;28;20216;-84
2022/01/25 12:00:48;;;;;;;70.47;29.38;;;5.20;99.90;;;;;;5075703;28;20214;-77
2022/01/25 12:03:29;;;;;;;66.15;25.95;;;5.10;99.90;;;;;;5074656;28;20201;-85
2022/01/25 12:05:59;;;;;;;73.35;30.60;;;5.00;99.90;;;;;;5074850;28;20211;-87
2022/01/25 12:08:38;;;;;;;64.15;25.40;;;4.90;99.90;;;;;;5074595;28;20226;-83
2022/01/25 12:11:23;;;;;;;75.68;32.35;;;4.80;99.90;;;;;;5072962;28;20192;-77
2022/01/25 12:14:14;;;;;;;71.35;26.90;;;5.20;99.90;;;;;;5074840;28;20250;-77
2022/01/25 12:16:44;;;;;;;70.55;27.33;;;5.50;99.90;;;;;;5076168;28;20201;-86
2022/01/25 12:19:16;;;;;;;77.15;32.08;;;5.50;99.90;;;;;;5074589;28;20261;-81
2022/01/25 12:21:52;;;;;;;121.15;47.25;;;5.30;99.90;;;;;;5074480;28;20873;-87
2022/01/25 12:24:40;;;;;;;78.07;28.58;;;5.30;99.90;;;;;;5074307;28;20174;-88
2022/01/25 12:29:40;;;;;;;65.32;27.40;;;5.30;99.90;;;;;;5074911;28;20177;-79
2022/01/25 12:32:24;;;;;;;62.75;26.10;;;5.40;99.90;;;;;;5074491;28;20178;-78
2022/01/25 12:35:04;;;;;;;75.32;29.30;;;5.70;99.90;;;;;;5074976;28;20248;-77
2022/01/25 12:37:45;;;;;;;101.03;31.92;;;5.80;99.90;;;;;;5075487;28;20169;-88
2022/01/25 12:40:25;;;;;;;97.72;28.90;;;5.50;99.90;;;;;;5075074;28;20177;-87
2022/01/25 12:43:05;;;;;;;81.50;30.52;;;5.30;99.90;;;;;;5074255;28;20697;-79
2022/01/25 12:45:54;;;;;;;106.70;35.45;;;5.30;99.90;;;;;;5074062;28;20170;-88
2022/01/25 12:48:25;;;;;;;150.45;60.70;;;5.50;99.90;;;;;;5069355;28;20206;-83
2022/01/25 12:50:53;;;;;;;112.25;41.53;;;5.70;99.90;;;;;;5073090;28;20193;-83
2022/01/25 12:53:23;;;;;;;89.75;33.20;;;5.60;99.90;;;;;;5071888;28;20174;-83
2022/01/25 12:55:52;;;;;;;87.40;31.98;;;5.70;99.90;;;;;;5069074;28;20213;-84
2022/01/25 12:58:25;;;;;;;93.88;33.88;;;5.70;99.90;;;;;;5072170;28;20166;-85
2022/01/25 13:00:54;;;;;;;237.30;59.75;;;5.70;99.90;;;;;;5073047;28;20655;-86
2022/01/25 13:03:47;;;;;;;136.40;39.17;;;5.60;99.90;;;;;;5073330;28;20202;-84
2022/01/25 13:06:15;;;;;;;117.40;36.10;;;5.60;99.90;;;;;;5066334;28;20190;-78
2022/01/25 13:08:50;;;;;;;138.73;37.45;;;5.60;99.90;;;;;;5074017;28;20159;-81
2022/01/25 13:11:30;;;;;;;110.05;34.65;;;5.60;99.90;;;;;;5072698;28;20193;-78
2022/01/25 13:14:34;;;;;;;214.82;40.80;;;5.60;99.90;;;;;;5073004;28;20598;-85
2022/01/25 13:16:45;;;;;;;68.80;25.95;;;5.60;99.90;;;;;;5072934;28;20162;-79
2022/01/25 13:19:12;;;;;;;94.63;30.73;;;5.20;99.90;;;;;;5073523;28;20200;-79
2022/01/25 13:21:51;;;;;;;198.45;42.97;;;5.10;99.90;;;;;;5072150;28;20204;-85
2022/01/25 13:24:19;;;;;;;92.75;30.52;;;5.00;99.90;;;;;;5073181;28;20270;-87
2022/01/25 13:26:59;;;;;;;89.20;30.55;;;5.30;99.90;;;;;;5074174;28;20155;-86
2022/01/25 13:32:26;;;;;;;118.00;36.95;;;5.70;99.90;;;;;;5072463;28;20217;-84
2022/01/25 13:35:16;;;;;;;91.75;31.42;;;5.50;99.90;;;;;;5072858;28;20622;-85
2022/01/25 13:37:42;;;;;;;90.43;32.17;;;5.70;99.90;;;;;;5072905;28;20627;-85
2022/01/25 13:40:12;;;;;;;125.03;38.40;;;5.70;99.90;;;;;;5070785;28;20585;-80
2022/01/25 13:42:43;;;;;;;106.57;36.05;;;5.60;99.90;;;;;;5072424;28;20210;-86
2022/01/25 13:48:10;;;;;;;106.78;32.50;;;5.40;99.90;;;;;;5072279;28;20269;-78
2022/01/25 13:50:38;;;;;;;95.00;33.55;;;5.70;99.90;;;;;;5072939;28;20228;-83
2022/01/25 13:53:05;;;;;;;95.43;32.83;;;5.60;99.90;;;;;;5073410;28;20166;-78
2022/01/25 13:55:31;;;;;;;166.38;42.70;;;5.70;99.90;;;;;;5072735;28;20640;-85
2022/01/25 13:57:57;;;;;;;129.38;56.72;;;6.00;99.90;;;;;;5071512;28;20178;-79
2022/01/25 14:00:23;;;;;;;93.90;39.53;;;6.00;99.90;;;;;;5073131;28;20246;-85
2022/01/25 14:02:55;;;;;;;134.15;38.90;;;6.20;99.90;;;;;;5073809;28;20206;-85
2022/01/25 14:05:21;;;;;;;76.30;32.78;;;6.20;99.90;;;;;;5072684;28;20173;-86
2022/01/25 14:07:53;;;;;;;90.80;34.80;;;6.00;99.90;;;;;;5072176;28;20220;-89
2022/01/25 14:10:24;;;;;;;111.75;41.40;;;5.80;99.90;;;;;;5076906;28;20174;-79
2022/01/25 14:23:56;;;;;;;66.05;28.90;;;6.10;99.90;;;;;;5075916;28;20198;-81
2022/01/25 14:26:28;;;;;;;79.72;30.27;;;6.10;99.90;;;;;;5076034;28;20249;-85
2022/01/25 14:29:04;;;;;;;68.40;29.02;;;6.00;99.90;;;;;;5071226;28;20253;-86
2022/01/25 14:31:30;;;;;;;62.83;27.98;;;6.20;99.90;;;;;;5076170;28;20186;-82
2022/01/25 14:34:06;;;;;;;65.07;28.33;;;6.00;99.90;;;;;;5075189;28;20181;-80
2022/01/25 14:36:31;;;;;;;59.75;27.67;;;5.90;99.90;;;;;;5076059;28;20158;-85
2022/01/25 14:38:59;;;;;;;59.17;26.48;;;6.10;99.90;;;;;;5075877;28;20169;-79
2022/01/25 14:41:31;;;;;;;65.03;28.63;;;6.10;99.90;;;;;;5078027;28;20195;-86
2022/01/25 14:44:01;;;;;;;68.70;27.15;;;6.00;99.90;;;;;;5076996;28;20197;-88
2022/01/25 14:46:28;;;;;;;72.25;27.40;;;5.80;99.90;;;;;;5075815;28;20162;-82
2022/01/25 14:49:19;;;;;;;82.85;29.17;;;5.60;99.90;;;;;;5075672;28;20174;-80
2022/01/25 14:51:50;;;;;;;101.80;31.63;;;5.60;99.90;;;;;;5076169;28;20233;-80
2022/01/25 14:54:26;;;;;;;60.63;28.33;;;5.50;99.90;;;;;;5075858;28;20166;-80
2022/01/25 14:56:56;;;;;;;68.22;29.00;;;5.50;99.90;;;;;;5074591;28;20227;-81
2022/01/25 14:59:28;;;;;;;72.32;27.85;;;5.80;99.90;;;;;;5080357;28;20165;-79
2022/01/25 15:02:07;;;;;;;80.85;29.23;;;5.70;99.90;;;;;;5080505;28;20745;-85